Time,TemperatureF,DewpointF,PressureIn,WindDirection,WindDirectionDegrees,WindSpeedMPH,WindSpeedGustMPH,Humidity,HourlyPrecipIn,Conditions,Clouds,dailyrainin,SoftwareType,DateUTC
2014-04-18 00:05:00,51.8,44.0,29.88,SE,130,0.0,0.0,76,0.00,,,0.00,weatherlink.com 1.10,2014-04-18 07:05:00,
2014-04-18 00:20:00,51.5,45.0,29.88,SE,129,0.0,1.0,78,0.00,,,0.00,weatherlink.com 1.10,2014-04-18 07:20:00,
2014-04-18 00:36:00,51.1,45.0,29.88,SE,129,0.0,0.0,80,0.00,,,0.00,weatherlink.com 1.10,2014-04-18 07:36:00,
2014-04-18 00:51:00,51.0,45.0,29.88,SE,142,0.0,1.0,80,0.00,,,0.00,weatherlink.com 1.10,2014-04-18 07:51:00,
2014-04-18 01:06:00,50.7,45.0,29.88,SE,134,0.0,1.0,81,0.00,,,0.00,weatherlink.com 1.10,2014-04-18 08:06:00,
2014-04-18 01:21:00,50.8,45.0,29.88,SE,134,0.0,0.0,81,0.00,,,0.00,weatherlink.com 1.10,2014-04-18 08:21:00,
2014-04-18 01:51:00,50.7,46.0,29.87,SE,144,1.0,2.0,83,0.00,,,0.00,weatherlink.com 1.10,2014-04-18 08:51:00,
2014-04-18 02:06:00,50.5,46.0,29.87,SE,140,0.0,1.0,83,0.00,,,0.00,weatherlink.com 1.10,2014-04-18 09:06:00,
2014-04-18 02:21:00,50.1,46.0,29.87,SE,140,0.0,0.0,84,0.00,,,0.00,weatherlink.com 1.10,2014-04-18 09:21:00,
2014-04-18 02:36:00,49.7,45.0,29.87,SE,141,0.0,0.0,85,0.00,,,0.00,weatherlink.com 1.10,2014-04-18 09:36:00,
2014-04-18 02:51:00,49.5,46.0,29.86,SE,139,0.0,0.0,86,0.00,,,0.00,weatherlink.com 1.10,2014-04-18 09:51:00,
2014-04-18 03:06:00,49.6,46.0,29.86,SE,139,0.0,0.0,86,0.00,,,0.00,weatherlink.com 1.10,2014-04-18 10:06:00,
2014-04-18 03:21:00,49.0,45.0,29.87,SE,139,0.0,0.0,86,0.00,,,0.00,weatherlink.com 1.10,2014-04-18 10:21:00,
2014-04-18 03:36:00,48.4,45.0,29.86,SE,139,0.0,0.0,87,0.00,,,0.00,weatherlink.com 1.10,2014-04-18 10:36:00,
2014-04-18 03:51:00,48.8,45.0,29.86,SE,141,1.0,1.0,88,0.00,,,0.00,weatherlink.com 1.10,2014-04-18 10:51:00,
2014-04-18 04:06:00,48.5,45.0,29.87,SSE,147,0.0,0.0,88,0.00,,,0.00,weatherlink.com 1.10,2014-04-18 11:06:00,
2014-04-18 04:21:00,48.3,46.0,29.87,SSE,148,0.0,1.0,90,0.00,,,0.00,weatherlink.com 1.10,2014-04-18 11:21:00,
2014-04-18 04:36:00,48.5,46.0,29.87,SE,134,0.0,1.0,90,0.00,,,0.00,weatherlink.com 1.10,2014-04-18 11:36:00,
2014-04-18 04:51:00,48.4,45.0,29.87,SSE,152,0.0,0.0,89,0.00,,,0.00,weatherlink.com 1.10,2014-04-18 11:51:00,
2014-04-18 05:06:00,47.9,45.0,29.87,SSE,152,0.0,0.0,89,0.00,,,0.00,weatherlink.com 1.10,2014-04-18 12:06:00,
2014-04-18 05:21:00,47.5,45.0,29.88,SSE,152,0.0,0.0,90,0.00,,,0.00,weatherlink.com 1.10,2014-04-18 12:21:00,
2014-04-18 05:36:00,47.2,45.0,29.87,SE,135,0.0,0.0,91,0.00,,,0.00,weatherlink.com 1.10,2014-04-18 12:36:00,
2014-04-18 05:51:00,47.6,45.0,29.87,SE,135,0.0,0.0,90,0.00,,,0.00,weatherlink.com 1.10,2014-04-18 12:51:00,
2014-04-18 06:06:00,47.3,45.0,29.88,SE,135,0.0,0.0,90,0.00,,,0.00,weatherlink.com 1.10,2014-04-18 13:06:00,
2014-04-18 06:21:00,46.9,45.0,29.88,SE,135,0.0,0.0,91,0.00,,,0.00,weatherlink.com 1.10,2014-04-18 13:21:00,
2014-04-18 06:36:00,46.5,44.0,29.89,SE,135,0.0,0.0,91,0.00,,,0.00,weatherlink.com 1.10,2014-04-18 13:36:00,
2014-04-18 06:51:00,47.3,45.0,29.89,SE,139,0.0,0.0,92,0.00,,,0.00,weatherlink.com 1.10,2014-04-18 13:51:00,
2014-04-18 07:06:00,48.3,46.0,29.89,SE,131,1.0,1.0,90,0.00,,,0.00,weatherlink.com 1.10,2014-04-18 14:06:00,
2014-04-18 07:21:00,49.3,46.0,29.90,SE,139,0.0,2.0,87,0.00,,,0.00,weatherlink.com 1.10,2014-04-18 14:21:00,
2014-04-18 07:36:00,49.8,46.0,29.91,SE,139,0.0,0.0,87,0.00,,,0.00,weatherlink.com 1.10,2014-04-18 14:36:00,
2014-04-18 07:51:00,50.7,47.0,29.91,SE,139,0.0,0.0,86,0.00,,,0.00,weatherlink.com 1.10,2014-04-18 14:51:00,
2014-04-18 08:06:00,51.7,47.0,29.92,ENE,77,0.0,1.0,85,0.00,,,0.00,weatherlink.com 1.10,2014-04-18 15:06:00,
2014-04-18 08:21:00,52.9,48.0,29.92,ENE,69,0.0,0.0,84,0.00,,,0.00,weatherlink.com 1.10,2014-04-18 15:21:00,
2014-04-18 08:36:00,53.5,49.0,29.92,NNE,15,0.0,1.0,83,0.00,,,0.00,weatherlink.com 1.10,2014-04-18 15:36:00,
2014-04-18 08:51:00,54.5,49.0,29.92,ESE,108,0.0,2.0,83,0.00,,,0.00,weatherlink.com 1.10,2014-04-18 15:51:00,
2014-04-18 09:07:00,56.2,50.0,29.92,SE,129,0.0,2.0,80,0.00,,,0.00,weatherlink.com 1.10,2014-04-18 16:07:00,
2014-04-18 09:22:00,57.1,50.0,29.92,SW,223,1.0,1.0,78,0.00,,,0.00,weatherlink.com 1.10,2014-04-18 16:22:00,
2014-04-18 09:37:00,58.8,50.0,29.92,SE,133,0.0,2.0,73,0.00,,,0.00,weatherlink.com 1.10,2014-04-18 16:37:00,
2014-04-18 09:52:00,60.9,51.0,29.92,NW,326,0.0,2.0,70,0.00,,,0.00,weatherlink.com 1.10,2014-04-18 16:52:00,
2014-04-18 10:07:00,62.3,51.0,29.92,NW,322,0.0,2.0,67,0.00,,,0.00,weatherlink.com 1.10,2014-04-18 17:07:00,
2014-04-18 10:22:00,63.3,51.0,29.92,NNW,342,0.0,2.0,65,0.00,,,0.00,weatherlink.com 1.10,2014-04-18 17:22:00,
2014-04-18 10:37:00,64.3,50.0,29.92,SSW,211,1.0,2.0,61,0.00,,,0.00,weatherlink.com 1.10,2014-04-18 17:37:00,
2014-04-18 10:52:00,66.4,53.0,29.92,SE,144,0.0,2.0,62,0.00,,,0.00,weatherlink.com 1.10,2014-04-18 17:52:00,
2014-04-18 11:07:00,67.4,51.0,29.92,WNW,300,1.0,3.0,55,0.00,,,0.00,weatherlink.com 1.10,2014-04-18 18:07:00,
2014-04-18 11:22:00,67.5,50.0,29.92,NNW,333,0.0,3.0,54,0.00,,,0.00,weatherlink.com 1.10,2014-04-18 18:22:00,
2014-04-18 11:37:00,69.2,52.0,29.91,NNW,334,1.0,2.0,55,0.00,,,0.00,weatherlink.com 1.10,2014-04-18 18:37:00,
2014-04-18 11:52:00,70.6,50.0,29.91,NNW,334,0.0,2.0,49,0.00,,,0.00,weatherlink.com 1.10,2014-04-18 18:52:00,
2014-04-18 12:07:00,71.1,52.0,29.91,NW,309,1.0,2.0,52,0.00,,,0.00,weatherlink.com 1.10,2014-04-18 19:07:00,
2014-04-18 12:22:00,70.5,52.0,29.90,North,6,2.0,3.0,53,0.00,,,0.00,weatherlink.com 1.10,2014-04-18 19:22:00,
2014-04-18 12:37:00,70.6,54.0,29.90,West,270,0.0,5.0,55,0.00,,,0.00,weatherlink.com 1.10,2014-04-18 19:37:00,
2014-04-18 12:52:00,71.1,54.0,29.90,NNW,328,2.0,4.0,55,0.00,,,0.00,weatherlink.com 1.10,2014-04-18 19:52:00,
2014-04-18 13:07:00,71.5,55.0,29.90,NNW,340,0.0,3.0,57,0.00,,,0.00,weatherlink.com 1.10,2014-04-18 20:07:00,
2014-04-18 13:22:00,72.0,55.0,29.89,WNW,295,0.0,2.0,55,0.00,,,0.00,weatherlink.com 1.10,2014-04-18 20:22:00,
2014-04-18 13:37:00,71.9,54.0,29.89,SSE,158,1.0,5.0,54,0.00,,,0.00,weatherlink.com 1.10,2014-04-18 20:37:00,
2014-04-18 13:52:00,72.3,54.0,29.89,SSE,165,1.0,4.0,53,0.00,,,0.00,weatherlink.com 1.10,2014-04-18 20:52:00,
2014-04-18 14:07:00,72.6,55.0,29.89,ESE,115,3.0,4.0,54,0.00,,,0.00,weatherlink.com 1.10,2014-04-18 21:07:00,
2014-04-18 14:22:00,71.2,54.0,29.89,SE,134,2.0,5.0,55,0.00,,,0.00,weatherlink.com 1.10,2014-04-18 21:22:00,
2014-04-18 14:37:00,69.9,55.0,29.89,ESE,117,1.0,4.0,59,0.00,,,0.00,weatherlink.com 1.10,2014-04-18 21:37:00,
2014-04-18 14:52:00,69.5,53.0,29.89,ESE,117,2.0,5.0,57,0.00,,,0.00,weatherlink.com 1.10,2014-04-18 21:52:00,
2014-04-18 15:07:00,68.7,53.0,29.89,SE,140,2.0,4.0,58,0.00,,,0.00,weatherlink.com 1.10,2014-04-18 22:07:00,
2014-04-18 15:22:00,70.1,54.0,29.89,SE,124,3.0,4.0,57,0.00,,,0.00,weatherlink.com 1.10,2014-04-18 22:22:00,
2014-04-18 15:37:00,70.2,54.0,29.88,SSE,167,2.0,4.0,56,0.00,,,0.00,weatherlink.com 1.10,2014-04-18 22:37:00,
2014-04-18 15:52:00,71.0,53.0,29.88,SSE,167,0.0,4.0,53,0.00,,,0.00,weatherlink.com 1.10,2014-04-18 22:52:00,
2014-04-18 16:07:00,70.7,52.0,29.88,SE,124,0.0,3.0,52,0.00,,,0.00,weatherlink.com 1.10,2014-04-18 23:07:00,
2014-04-18 16:22:00,68.6,52.0,29.88,SE,126,1.0,3.0,56,0.00,,,0.00,weatherlink.com 1.10,2014-04-18 23:22:00,
2014-04-18 16:37:00,68.1,54.0,29.88,SE,145,1.0,3.0,60,0.00,,,0.00,weatherlink.com 1.10,2014-04-18 23:37:00,
2014-04-18 16:53:00,67.3,51.0,29.88,SSE,151,1.0,2.0,56,0.00,,,0.00,weatherlink.com 1.10,2014-04-18 23:53:00,
2014-04-18 17:08:00,66.9,51.0,29.88,SSW,202,0.0,3.0,56,0.00,,,0.00,weatherlink.com 1.10,2014-04-19 00:08:00,
2014-04-18 17:23:00,65.9,50.0,29.88,SSE,156,1.0,3.0,56,0.00,,,0.00,weatherlink.com 1.10,2014-04-19 00:23:00,